createdAt,value
2022-08-28T00:02:16.010Z,93766.22
2022-08-28T00:07:19.643Z,93766.44
2022-08-28T00:12:21.892Z,93774.88
2022-08-28T00:17:23.981Z,93776.91
2022-08-28T00:22:26.078Z,93772.63
2022-08-28T00:27:46.878Z,93773.56
2022-08-28T00:32:49.456Z,93779.56
2022-08-28T00:37:52.311Z,93740.22
2022-08-28T00:42:55.056Z,93776.16
2022-08-28T00:47:57.135Z,93760.06
2022-08-28T00:53:00.962Z,93772.50
2022-08-28T00:58:03.484Z,93757.56
2022-08-28T01:03:06.689Z,93764.94
2022-08-28T01:08:08.667Z,93770.53
2022-08-28T01:13:10.969Z,93777.25
2022-08-28T01:18:15.921Z,93777.47
2022-08-28T01:23:25.890Z,93738.28
2022-08-28T01:28:27.964Z,93747.63
2022-08-28T01:33:30.152Z,93764.28
2022-08-28T01:38:32.183Z,93772.91
2022-08-28T01:43:34.135Z,93787.69
2022-08-28T01:48:39.402Z,93794.88
2022-08-28T01:53:42.220Z,93781.03
2022-08-28T01:58:50.362Z,93805.88
2022-08-28T02:03:53.185Z,93786.53
2022-08-28T02:08:55.783Z,93788.06
2022-08-28T02:13:58.058Z,93793.88
2022-08-28T02:19:01.964Z,93764.25
2022-08-28T02:24:05.101Z,93773.16
2022-08-28T02:29:06.933Z,93784.31
2022-08-28T02:34:11.709Z,93765.50
2022-08-28T02:39:13.969Z,93779.88
2022-08-28T02:44:17.531Z,93765.97
2022-08-28T02:49:19.665Z,93774.19
2022-08-28T02:54:22.119Z,93775.53
2022-08-28T02:59:24.549Z,93775.31
2022-08-28T03:04:26.576Z,93770.22
2022-08-28T03:09:28.625Z,93774.53
2022-08-28T03:14:31.047Z,93756.00
2022-08-28T03:19:33.553Z,93769.56
2022-08-28T03:24:35.494Z,93768.97
2022-08-28T03:29:37.653Z,93731.00
2022-08-28T03:34:41.219Z,93772.72
2022-08-28T03:39:43.139Z,93772.38
2022-08-28T03:44:45.330Z,93771.63
2022-08-28T03:49:47.650Z,93767.91
2022-08-28T03:54:49.676Z,93765.56
2022-08-28T03:59:53.449Z,93761.47
2022-08-28T04:04:55.475Z,93755.34
2022-08-28T04:09:57.474Z,93761.63
2022-08-28T04:14:59.460Z,93764.38
2022-08-28T04:20:01.448Z,93771.75
2022-08-28T04:25:04.144Z,93769.81
2022-08-28T04:30:09.973Z,93789.69
2022-08-28T04:35:13.275Z,93793.63
2022-08-28T04:40:18.791Z,93764.06
2022-08-28T04:45:24.022Z,93785.22
2022-08-28T04:50:25.976Z,93795.41
2022-08-28T04:55:51.571Z,93788.06
2022-08-28T05:00:51.509Z,93796.63
2022-08-28T05:05:54.465Z,93800.91
2022-08-28T05:10:58.154Z,93801.75
2022-08-28T05:16:04.205Z,93809.09
2022-08-28T05:21:14.445Z,93795.25
2022-08-28T05:26:19.961Z,93811.13
2022-08-28T05:31:23.153Z,93828.13
2022-08-28T05:36:25.802Z,93838.59
2022-08-28T05:41:32.797Z,93819.72
2022-08-28T05:46:37.755Z,93827.53
2022-08-28T05:51:41.555Z,93838.81
2022-08-28T05:56:44.983Z,93854.66
2022-08-28T06:01:47.822Z,93856.22
2022-08-28T06:06:50.224Z,93860.94
2022-08-28T06:11:54.683Z,93871.38
2022-08-28T06:16:59.817Z,93874.88
2022-08-28T06:22:07.312Z,93865.22
2022-08-28T06:27:09.639Z,93879.47
2022-08-28T06:32:11.677Z,93890.22
2022-08-28T06:37:13.776Z,93890.22
2022-08-28T06:42:15.983Z,93897.09
2022-08-28T06:47:17.785Z,93893.91
2022-08-28T06:52:20.361Z,93892.72
2022-08-28T06:57:22.433Z,93893.84
2022-08-28T07:02:28.191Z,93901.94
2022-08-28T07:07:31.803Z,93899.09
2022-08-28T07:12:34.925Z,93902.13
2022-08-28T07:17:37.004Z,93901.97
2022-08-28T07:22:41.169Z,93902.22
2022-08-28T07:27:43.939Z,93899.75
2022-08-28T07:32:49.390Z,93865.22
2022-08-28T07:37:51.345Z,93895.88
2022-08-28T07:43:11.704Z,93905.03
2022-08-28T07:48:14.503Z,93879.06
2022-08-28T07:53:16.662Z,93905.06
2022-08-28T07:58:20.107Z,93908.41
2022-08-28T08:03:23.037Z,93915.34
2022-08-28T08:08:25.387Z,93911.44
2022-08-28T08:13:29.407Z,93901.06
2022-08-28T08:18:31.810Z,93919.38
2022-08-28T08:23:38.993Z,93916.75
2022-08-28T08:28:42.563Z,93924.59
2022-08-28T08:33:47.185Z,93913.94
2022-08-28T08:38:49.592Z,93912.69
2022-08-28T08:44:01.608Z,93929.66
2022-08-28T08:49:07.115Z,93920.97
2022-08-28T08:54:12.905Z,93874.34
2022-08-28T08:59:20.960Z,93875.16
2022-08-28T09:04:46.561Z,93896.34
2022-08-28T09:09:52.666Z,93896.16
2022-08-28T09:15:07.961Z,93885.13
2022-08-28T09:20:13.455Z,93901.03
2022-08-28T09:25:51.347Z,93882.09
2022-08-28T09:31:04.478Z,93889.47
2022-08-28T09:36:31.391Z,93878.75
2022-08-28T09:41:55.893Z,93879.38
2022-08-28T09:46:57.986Z,93884.03
2022-08-28T09:52:21.935Z,93863.50
2022-08-28T09:57:27.288Z,93893.91
2022-08-28T10:02:41.445Z,93861.97
2022-08-28T10:07:52.907Z,93900.66
2022-08-28T10:13:08.968Z,93905.56
2022-08-28T10:18:10.889Z,93906.53
2022-08-28T10:23:25.276Z,93895.66
2022-08-28T10:29:06.050Z,93897.09
2022-08-28T10:34:59.025Z,93895.13
2022-08-28T10:40:05.695Z,93895.09
2022-08-28T10:45:19.431Z,93886.25
2022-08-28T10:50:32.546Z,93884.94
2022-08-28T10:56:08.137Z,93871.44
2022-08-28T11:01:14.163Z,93876.41
2022-08-28T11:06:29.048Z,93872.78
2022-08-28T11:12:01.535Z,93876.59
2022-08-28T11:17:09.925Z,93868.94
2022-08-28T11:22:20.191Z,93848.22
2022-08-28T11:27:33.401Z,93859.41
2022-08-28T11:32:37.289Z,93863.44
2022-08-28T11:37:45.738Z,93859.88
2022-08-28T11:42:51.349Z,93858.66
2022-08-28T11:47:56.813Z,93847.41
2022-08-28T11:53:26.737Z,93856.25
2022-08-28T11:58:48.009Z,93850.53
2022-08-28T12:03:55.559Z,93860.31
2022-08-28T12:08:57.908Z,93849.28
2022-08-28T12:14:00.089Z,93842.06
2022-08-28T12:19:03.774Z,93832.50
2022-08-28T12:24:22.427Z,93822.19
2022-08-28T12:29:38.526Z,93831.25
2022-08-28T12:34:43.804Z,93797.78
2022-08-28T12:39:45.950Z,93808.06
2022-08-28T12:44:48.428Z,93803.66
2022-08-28T12:49:50.706Z,93807.47
2022-08-28T12:54:55.537Z,93793.13
2022-08-28T13:00:08.525Z,93771.22
2022-08-28T13:05:28.881Z,93796.88
2022-08-28T13:10:35.769Z,93795.06
2022-08-28T13:15:43.547Z,93786.84
2022-08-28T13:20:45.600Z,93776.31
2022-08-28T13:25:47.556Z,93774.28
2022-08-28T13:30:59.194Z,93761.03
2022-08-28T13:36:22.654Z,93660.84
2022-08-28T13:41:24.867Z,93753.44
2022-08-28T13:46:27.309Z,93738.19
2022-08-28T13:51:29.403Z,93736.66
2022-08-28T13:56:32.014Z,93720.31
2022-08-28T14:01:52.644Z,93716.19
2022-08-28T14:06:54.759Z,93708.31
2022-08-28T14:11:58.969Z,93700.13
2022-08-28T14:17:01.974Z,93694.50
2022-08-28T14:22:04.565Z,93698.22
2022-08-28T14:27:06.558Z,93676.31
2022-08-28T14:32:08.616Z,93684.13
2022-08-28T14:37:10.859Z,93658.16
2022-08-28T14:42:13.317Z,93669.97
2022-08-28T14:47:15.393Z,93670.47
2022-08-28T14:52:19.595Z,93675.41
2022-08-28T14:57:21.571Z,93662.06
2022-08-28T15:02:23.537Z,93657.28
2022-08-28T15:07:25.542Z,93654.50
2022-08-28T15:12:27.644Z,93662.81
2022-08-28T15:17:34.361Z,93636.03
2022-08-28T15:22:37.195Z,93662.84
2022-08-28T15:27:39.263Z,93652.44
2022-08-28T15:32:43.269Z,93654.75
2022-08-28T15:37:45.998Z,93654.13
2022-08-28T15:42:48.425Z,93624.72
2022-08-28T15:47:50.560Z,93646.38
2022-08-28T15:52:53.455Z,93640.16
2022-08-28T15:57:55.509Z,93642.84
2022-08-28T16:03:01.020Z,93621.38
2022-08-28T16:08:03.193Z,93619.75
2022-08-28T16:13:06.895Z,93628.31
2022-08-28T16:18:09.632Z,93612.41
2022-08-28T16:23:13.074Z,93630.84
2022-08-28T16:28:15.229Z,93617.59
2022-08-28T16:33:20.371Z,93628.16
2022-08-28T16:38:24.379Z,93631.09
2022-08-28T16:43:26.333Z,93591.59
2022-08-28T16:48:28.667Z,93621.22
2022-08-28T16:53:31.357Z,93618.72
2022-08-28T16:58:33.357Z,93569.19
2022-08-28T17:03:36.017Z,93593.41
2022-08-28T17:08:38.392Z,93599.53
2022-08-28T17:13:40.436Z,93604.22
2022-08-28T17:18:48.156Z,93574.91
2022-08-28T17:23:54.460Z,93601.00
2022-08-28T17:28:56.457Z,93599.19
2022-08-28T17:33:58.432Z,93578.91
2022-08-28T17:39:01.601Z,93598.06
2022-08-28T17:44:05.370Z,93581.59
2022-08-28T17:49:08.621Z,93556.16
2022-08-28T17:54:12.453Z,93600.75
2022-08-28T17:59:14.950Z,93599.66
2022-08-28T18:04:23.950Z,93596.44
2022-08-28T18:09:26.290Z,93597.75
2022-08-28T18:14:28.218Z,93579.16
2022-08-28T18:19:30.348Z,93590.78
2022-08-28T18:24:32.327Z,93600.75
2022-08-28T18:29:36.867Z,93599.59
2022-08-28T18:34:39.204Z,93598.97
2022-08-28T18:39:42.282Z,93604.84
2022-08-28T18:44:46.255Z,93603.41
2022-08-28T18:49:48.355Z,93606.84
2022-08-28T18:54:50.659Z,93601.50
2022-08-28T18:59:53.218Z,93612.72
2022-08-28T19:04:55.237Z,93609.53
2022-08-28T19:09:58.064Z,93619.38
2022-08-28T19:15:00.516Z,93618.28
2022-08-28T19:20:04.960Z,93630.69
2022-08-28T19:25:23.301Z,93614.06
2022-08-28T19:30:33.388Z,93648.25
2022-08-28T19:35:35.708Z,93659.59
2022-08-28T19:40:40.369Z,93656.69
2022-08-28T19:45:43.722Z,93672.47
2022-08-28T19:50:45.869Z,93673.38
2022-08-28T19:55:48.021Z,93688.03
2022-08-28T20:00:51.556Z,93674.03
2022-08-28T20:05:55.021Z,93685.03
2022-08-28T20:10:57.218Z,93707.94
2022-08-28T20:16:04.058Z,93711.16
2022-08-28T20:21:10.896Z,93703.19
2022-08-28T20:26:13.222Z,93725.53
2022-08-28T20:31:17.525Z,93719.53
2022-08-28T20:36:21.359Z,93729.16
2022-08-28T20:41:23.993Z,93741.22
2022-08-28T20:46:26.333Z,93733.84
2022-08-28T20:51:47.615Z,93748.66
2022-08-28T20:56:51.772Z,93764.22
2022-08-28T21:01:55.400Z,93764.81
2022-08-28T21:06:58.019Z,93755.13
2022-08-28T21:12:00.296Z,93767.47
2022-08-28T21:17:02.744Z,93734.44
2022-08-28T21:22:04.856Z,93763.28
2022-08-28T21:27:09.596Z,93746.84
2022-08-28T21:32:11.671Z,93775.44
2022-08-28T21:37:13.600Z,93777.53
2022-08-28T21:42:15.544Z,93790.31
2022-08-28T21:47:17.529Z,93798.19
2022-08-28T21:52:20.688Z,93789.53
2022-08-28T21:57:22.738Z,93806.78
2022-08-28T22:02:25.505Z,93725.75
2022-08-28T22:07:27.483Z,93824.69
2022-08-28T22:12:29.454Z,93824.75
2022-08-28T22:17:34.648Z,93824.38
2022-08-28T22:22:55.311Z,93811.09
2022-08-28T22:27:57.415Z,93840.75
2022-08-28T22:33:00.938Z,93835.94
2022-08-28T22:38:03.531Z,93846.59
2022-08-28T22:43:05.617Z,93855.81
2022-08-28T22:48:07.768Z,93844.31
2022-08-28T22:53:10.650Z,93825.56
2022-08-28T22:58:13.177Z,93827.09
2022-08-28T23:03:15.332Z,93795.97
2022-08-28T23:08:17.483Z,93852.53
2022-08-28T23:13:20.313Z,93845.72
2022-08-28T23:18:22.509Z,93853.28
2022-08-28T23:23:25.032Z,93859.84
2022-08-28T23:28:27.014Z,93857.47
2022-08-28T23:33:29.021Z,93858.31
2022-08-28T23:38:31.043Z,93859.94
2022-08-28T23:43:33.891Z,93858.94
2022-08-28T23:48:35.961Z,93889.72
2022-08-28T23:53:42.344Z,93888.22
2022-08-28T23:58:45.518Z,93875.13
